sensor_id;sensor_type;location;lat;lon;timestamp;P1;durP1;ratioP1;P2;durP2;ratioP2
4084;SDS011;2057;50.858;6.572;2022-09-12T00:02:24;9.73;;;8.77;;
4084;SDS011;2057;50.858;6.572;2022-09-12T00:04:50;12.20;;;8.70;;
4084;SDS011;2057;50.858;6.572;2022-09-12T00:07:15;11.90;;;8.70;;
4084;SDS011;2057;50.858;6.572;2022-09-12T00:09:40;10.17;;;8.20;;
4084;SDS011;2057;50.858;6.572;2022-09-12T00:12:06;13.97;;;10.43;;
4084;SDS011;2057;50.858;6.572;2022-09-12T00:14:34;11.17;;;10.07;;
4084;SDS011;2057;50.858;6.572;2022-09-12T00:17:00;10.30;;;9.30;;
4084;SDS011;2057;50.858;6.572;2022-09-12T00:19:26;11.00;;;9.90;;
4084;SDS011;2057;50.858;6.572;2022-09-12T00:21:52;15.57;;;11.10;;
4084;SDS011;2057;50.858;6.572;2022-09-12T00:24:18;15.43;;;10.10;;
4084;SDS011;2057;50.858;6.572;2022-09-12T00:26:46;12.57;;;10.20;;
4084;SDS011;2057;50.858;6.572;2022-09-12T00:29:15;16.00;;;12.40;;
4084;SDS011;2057;50.858;6.572;2022-09-12T00:31:42;20.13;;;12.10;;
4084;SDS011;2057;50.858;6.572;2022-09-12T00:34:08;13.40;;;11.53;;
4084;SDS011;2057;50.858;6.572;2022-09-12T00:36:33;14.50;;;11.80;;
4084;SDS011;2057;50.858;6.572;2022-09-12T00:38:59;21.53;;;13.67;;
4084;SDS011;2057;50.858;6.572;2022-09-12T00:43:53;15.23;;;11.30;;
4084;SDS011;2057;50.858;6.572;2022-09-12T00:49:16;19.13;;;12.07;;
4084;SDS011;2057;50.858;6.572;2022-09-12T00:51:46;20.27;;;11.73;;
4084;SDS011;2057;50.858;6.572;2022-09-12T00:54:16;29.60;;;14.57;;
4084;SDS011;2057;50.858;6.572;2022-09-12T00:56:46;20.03;;;14.80;;
4084;SDS011;2057;50.858;6.572;2022-09-12T00:59:19;18.90;;;14.57;;
4084;SDS011;2057;50.858;6.572;2022-09-12T01:01:49;19.27;;;16.20;;
4084;SDS011;2057;50.858;6.572;2022-09-12T01:04:15;26.97;;;16.83;;
4084;SDS011;2057;50.858;6.572;2022-09-12T01:06:44;19.10;;;16.00;;
4084;SDS011;2057;50.858;6.572;2022-09-12T01:09:11;19.53;;;14.77;;
4084;SDS011;2057;50.858;6.572;2022-09-12T01:11:41;21.47;;;15.23;;
4084;SDS011;2057;50.858;6.572;2022-09-12T01:14:10;27.17;;;16.17;;
4084;SDS011;2057;50.858;6.572;2022-09-12T01:16:36;26.80;;;16.03;;
4084;SDS011;2057;50.858;6.572;2022-09-12T01:31:17;21.50;;;16.27;;
4084;SDS011;2057;50.858;6.572;2022-09-12T01:36:33;27.17;;;18.70;;
4084;SDS011;2057;50.858;6.572;2022-09-12T01:39:06;26.20;;;18.57;;
4084;SDS011;2057;50.858;6.572;2022-09-12T01:44:34;20.20;;;16.27;;
4084;SDS011;2057;50.858;6.572;2022-09-12T01:47:05;24.03;;;17.20;;
4084;SDS011;2057;50.858;6.572;2022-09-12T01:52:17;22.53;;;17.40;;
4084;SDS011;2057;50.858;6.572;2022-09-12T01:54:50;23.50;;;18.00;;
4084;SDS011;2057;50.858;6.572;2022-09-12T01:57:24;27.87;;;18.50;;
4084;SDS011;2057;50.858;6.572;2022-09-12T01:59:57;28.80;;;16.30;;
4084;SDS011;2057;50.858;6.572;2022-09-12T02:05:03;25.20;;;17.07;;
4084;SDS011;2057;50.858;6.572;2022-09-12T02:07:38;22.17;;;17.63;;
4084;SDS011;2057;50.858;6.572;2022-09-12T02:10:15;26.80;;;17.23;;
4084;SDS011;2057;50.858;6.572;2022-09-12T02:13:00;27.23;;;17.47;;
4084;SDS011;2057;50.858;6.572;2022-09-12T02:15:32;26.80;;;17.47;;
4084;SDS011;2057;50.858;6.572;2022-09-12T02:18:02;21.73;;;17.23;;
4084;SDS011;2057;50.858;6.572;2022-09-12T02:20:30;26.93;;;18.10;;
4084;SDS011;2057;50.858;6.572;2022-09-12T02:23:00;29.90;;;19.20;;
4084;SDS011;2057;50.858;6.572;2022-09-12T02:25:30;27.50;;;19.53;;
4084;SDS011;2057;50.858;6.572;2022-09-12T02:28:03;26.33;;;18.70;;
4084;SDS011;2057;50.858;6.572;2022-09-12T02:30:36;30.37;;;17.40;;
4084;SDS011;2057;50.858;6.572;2022-09-12T02:33:14;24.63;;;17.10;;
4084;SDS011;2057;50.858;6.572;2022-09-12T02:38:36;20.80;;;17.77;;
4084;SDS011;2057;50.858;6.572;2022-09-12T02:41:09;23.40;;;18.77;;
4084;SDS011;2057;50.858;6.572;2022-09-12T02:43:36;35.87;;;21.27;;
4084;SDS011;2057;50.858;6.572;2022-09-12T02:46:03;24.30;;;17.97;;
4084;SDS011;2057;50.858;6.572;2022-09-12T02:48:36;23.30;;;18.37;;
4084;SDS011;2057;50.858;6.572;2022-09-12T02:51:04;30.20;;;19.43;;
4084;SDS011;2057;50.858;6.572;2022-09-12T02:53:30;27.37;;;17.07;;
4084;SDS011;2057;50.858;6.572;2022-09-12T02:55:55;26.03;;;17.70;;
4084;SDS011;2057;50.858;6.572;2022-09-12T02:58:21;24.83;;;16.90;;
4084;SDS011;2057;50.858;6.572;2022-09-12T03:03:56;30.93;;;20.13;;
4084;SDS011;2057;50.858;6.572;2022-09-12T03:06:35;26.63;;;18.10;;
4084;SDS011;2057;50.858;6.572;2022-09-12T03:12:21;28.30;;;19.30;;
4084;SDS011;2057;50.858;6.572;2022-09-12T03:14:58;23.37;;;18.10;;
4084;SDS011;2057;50.858;6.572;2022-09-12T03:20:40;28.00;;;17.70;;
4084;SDS011;2057;50.858;6.572;2022-09-12T03:26:19;26.87;;;18.47;;
4084;SDS011;2057;50.858;6.572;2022-09-12T03:28:50;30.10;;;21.27;;
4084;SDS011;2057;50.858;6.572;2022-09-12T03:31:18;30.73;;;20.77;;
4084;SDS011;2057;50.858;6.572;2022-09-12T03:33:44;28.70;;;20.40;;
4084;SDS011;2057;50.858;6.572;2022-09-12T03:36:43;39.40;;;20.63;;
4084;SDS011;2057;50.858;6.572;2022-09-12T03:39:01;32.13;;;21.37;;
4084;SDS011;2057;50.858;6.572;2022-09-12T03:41:27;33.37;;;21.17;;
4084;SDS011;2057;50.858;6.572;2022-09-12T03:43:52;27.93;;;20.13;;
4084;SDS011;2057;50.858;6.572;2022-09-12T03:46:17;40.00;;;20.73;;
4084;SDS011;2057;50.858;6.572;2022-09-12T03:48:43;27.60;;;19.37;;
4084;SDS011;2057;50.858;6.572;2022-09-12T03:51:09;36.07;;;22.47;;
4084;SDS011;2057;50.858;6.572;2022-09-12T03:53:35;38.20;;;23.50;;
4084;SDS011;2057;50.858;6.572;2022-09-12T03:56:04;42.10;;;22.97;;
4084;SDS011;2057;50.858;6.572;2022-09-12T03:58:32;29.40;;;20.27;;
4084;SDS011;2057;50.858;6.572;2022-09-12T04:00:59;32.73;;;21.73;;
4084;SDS011;2057;50.858;6.572;2022-09-12T04:03:25;36.43;;;21.30;;
4084;SDS011;2057;50.858;6.572;2022-09-12T04:05:50;34.17;;;21.63;;
4084;SDS011;2057;50.858;6.572;2022-09-12T04:08:15;35.13;;;21.50;;
4084;SDS011;2057;50.858;6.572;2022-09-12T04:10:41;40.43;;;23.20;;
4084;SDS011;2057;50.858;6.572;2022-09-12T04:13:06;35.47;;;25.17;;
4084;SDS011;2057;50.858;6.572;2022-09-12T04:15:32;29.97;;;21.33;;
4084;SDS011;2057;50.858;6.572;2022-09-12T04:17:57;31.13;;;22.87;;
4084;SDS011;2057;50.858;6.572;2022-09-12T04:20:22;36.00;;;22.67;;
4084;SDS011;2057;50.858;6.572;2022-09-12T04:22:48;39.13;;;25.20;;
4084;SDS011;2057;50.858;6.572;2022-09-12T04:25:13;39.50;;;23.33;;
4084;SDS011;2057;50.858;6.572;2022-09-12T04:27:39;26.67;;;22.03;;
4084;SDS011;2057;50.858;6.572;2022-09-12T04:30:04;36.17;;;24.17;;
4084;SDS011;2057;50.858;6.572;2022-09-12T04:32:30;33.30;;;22.83;;
4084;SDS011;2057;50.858;6.572;2022-09-12T04:34:56;38.33;;;24.60;;
4084;SDS011;2057;50.858;6.572;2022-09-12T04:37:21;39.00;;;23.67;;
4084;SDS011;2057;50.858;6.572;2022-09-12T04:39:48;33.43;;;24.23;;
4084;SDS011;2057;50.858;6.572;2022-09-12T04:42:14;34.33;;;23.97;;
4084;SDS011;2057;50.858;6.572;2022-09-12T04:44:39;32.60;;;23.60;;
4084;SDS011;2057;50.858;6.572;2022-09-12T04:47:05;69.10;;;27.07;;
4084;SDS011;2057;50.858;6.572;2022-09-12T04:49:30;39.97;;;25.00;;
4084;SDS011;2057;50.858;6.572;2022-09-12T04:51:56;33.97;;;23.70;;
4084;SDS011;2057;50.858;6.572;2022-09-12T04:54:21;42.27;;;25.77;;
4084;SDS011;2057;50.858;6.572;2022-09-12T04:56:47;39.20;;;27.20;;
4084;SDS011;2057;50.858;6.572;2022-09-12T04:59:14;42.03;;;24.17;;
4084;SDS011;2057;50.858;6.572;2022-09-12T05:01:41;36.27;;;26.27;;
4084;SDS011;2057;50.858;6.572;2022-09-12T05:04:08;37.83;;;26.20;;
4084;SDS011;2057;50.858;6.572;2022-09-12T05:06:35;37.67;;;25.90;;
4084;SDS011;2057;50.858;6.572;2022-09-12T05:09:02;47.03;;;25.57;;
4084;SDS011;2057;50.858;6.572;2022-09-12T05:11:35;30.47;;;22.60;;
4084;SDS011;2057;50.858;6.572;2022-09-12T05:14:02;39.47;;;25.40;;
4084;SDS011;2057;50.858;6.572;2022-09-12T05:16:28;40.07;;;25.20;;
4084;SDS011;2057;50.858;6.572;2022-09-12T05:18:55;63.27;;;25.17;;
4084;SDS011;2057;50.858;6.572;2022-09-12T05:21:23;38.33;;;23.37;;
4084;SDS011;2057;50.858;6.572;2022-09-12T05:23:53;26.60;;;17.97;;
4084;SDS011;2057;50.858;6.572;2022-09-12T05:26:20;32.80;;;21.30;;
4084;SDS011;2057;50.858;6.572;2022-09-12T05:28:47;37.27;;;23.10;;
4084;SDS011;2057;50.858;6.572;2022-09-12T05:31:17;33.03;;;23.73;;
4084;SDS011;2057;50.858;6.572;2022-09-12T05:33:45;35.40;;;24.00;;
4084;SDS011;2057;50.858;6.572;2022-09-12T05:36:13;43.20;;;25.63;;
4084;SDS011;2057;50.858;6.572;2022-09-12T05:38:59;37.13;;;23.60;;
4084;SDS011;2057;50.858;6.572;2022-09-12T05:41:26;38.77;;;23.87;;
4084;SDS011;2057;50.858;6.572;2022-09-12T05:43:56;44.47;;;23.03;;
4084;SDS011;2057;50.858;6.572;2022-09-12T05:46:23;36.00;;;21.37;;
4084;SDS011;2057;50.858;6.572;2022-09-12T05:48:50;40.90;;;23.00;;
4084;SDS011;2057;50.858;6.572;2022-09-12T05:51:19;32.77;;;22.93;;
4084;SDS011;2057;50.858;6.572;2022-09-12T05:53:57;50.23;;;23.43;;
4084;SDS011;2057;50.858;6.572;2022-09-12T05:56:25;51.27;;;23.60;;
4084;SDS011;2057;50.858;6.572;2022-09-12T05:58:53;48.63;;;23.33;;
4084;SDS011;2057;50.858;6.572;2022-09-12T06:01:23;50.73;;;20.67;;
4084;SDS011;2057;50.858;6.572;2022-09-12T06:03:50;31.43;;;21.50;;
4084;SDS011;2057;50.858;6.572;2022-09-12T06:06:18;42.80;;;20.13;;
4084;SDS011;2057;50.858;6.572;2022-09-12T06:08:46;33.87;;;21.87;;
4084;SDS011;2057;50.858;6.572;2022-09-12T06:11:15;39.40;;;23.17;;
4084;SDS011;2057;50.858;6.572;2022-09-12T06:13:42;33.90;;;20.90;;
4084;SDS011;2057;50.858;6.572;2022-09-12T06:18:35;37.33;;;20.77;;
4084;SDS011;2057;50.858;6.572;2022-09-12T06:21:11;34.33;;;19.13;;
4084;SDS011;2057;50.858;6.572;2022-09-12T06:23:37;31.37;;;21.27;;
4084;SDS011;2057;50.858;6.572;2022-09-12T06:26:04;27.80;;;20.00;;
4084;SDS011;2057;50.858;6.572;2022-09-12T06:28:30;31.57;;;21.13;;
4084;SDS011;2057;50.858;6.572;2022-09-12T06:31:01;25.70;;;19.40;;
4084;SDS011;2057;50.858;6.572;2022-09-12T06:33:29;29.70;;;21.03;;
4084;SDS011;2057;50.858;6.572;2022-09-12T06:36:00;32.80;;;19.27;;
4084;SDS011;2057;50.858;6.572;2022-09-12T06:38:35;28.10;;;19.20;;
4084;SDS011;2057;50.858;6.572;2022-09-12T06:41:04;28.40;;;20.70;;
4084;SDS011;2057;50.858;6.572;2022-09-12T06:43:31;28.03;;;20.50;;
4084;SDS011;2057;50.858;6.572;2022-09-12T06:45:57;33.50;;;22.37;;
4084;SDS011;2057;50.858;6.572;2022-09-12T06:48:23;28.67;;;20.73;;
4084;SDS011;2057;50.858;6.572;2022-09-12T06:51:02;35.10;;;23.97;;
4084;SDS011;2057;50.858;6.572;2022-09-12T06:53:32;34.40;;;23.43;;
4084;SDS011;2057;50.858;6.572;2022-09-12T06:55:58;35.23;;;22.40;;
4084;SDS011;2057;50.858;6.572;2022-09-12T06:58:26;29.90;;;22.00;;
4084;SDS011;2057;50.858;6.572;2022-09-12T07:00:52;28.83;;;21.50;;
4084;SDS011;2057;50.858;6.572;2022-09-12T07:03:25;35.47;;;22.57;;
4084;SDS011;2057;50.858;6.572;2022-09-12T07:05:50;31.60;;;22.33;;
4084;SDS011;2057;50.858;6.572;2022-09-12T07:08:16;33.40;;;20.50;;
4084;SDS011;2057;50.858;6.572;2022-09-12T07:10:41;33.43;;;20.57;;
4084;SDS011;2057;50.858;6.572;2022-09-12T07:13:06;29.00;;;20.13;;
4084;SDS011;2057;50.858;6.572;2022-09-12T07:15:33;34.73;;;21.57;;
4084;SDS011;2057;50.858;6.572;2022-09-12T07:17:59;47.33;;;26.40;;
4084;SDS011;2057;50.858;6.572;2022-09-12T07:20:25;36.93;;;22.30;;
4084;SDS011;2057;50.858;6.572;2022-09-12T07:22:50;28.70;;;19.70;;
4084;SDS011;2057;50.858;6.572;2022-09-12T07:25:15;28.53;;;20.40;;
4084;SDS011;2057;50.858;6.572;2022-09-12T07:27:41;33.50;;;21.80;;
4084;SDS011;2057;50.858;6.572;2022-09-12T07:30:07;41.07;;;21.77;;
4084;SDS011;2057;50.858;6.572;2022-09-12T07:32:32;34.53;;;21.47;;
4084;SDS011;2057;50.858;6.572;2022-09-12T07:34:58;27.80;;;20.00;;
4084;SDS011;2057;50.858;6.572;2022-09-12T07:37:23;31.33;;;21.63;;
4084;SDS011;2057;50.858;6.572;2022-09-12T07:39:49;31.43;;;21.37;;
4084;SDS011;2057;50.858;6.572;2022-09-12T07:42:14;30.80;;;21.90;;
4084;SDS011;2057;50.858;6.572;2022-09-12T07:44:40;32.97;;;20.90;;
4084;SDS011;2057;50.858;6.572;2022-09-12T07:47:06;35.30;;;20.97;;
4084;SDS011;2057;50.858;6.572;2022-09-12T07:49:31;33.57;;;20.80;;
4084;SDS011;2057;50.858;6.572;2022-09-12T07:51:57;26.07;;;20.03;;
4084;SDS011;2057;50.858;6.572;2022-09-12T07:54:22;32.50;;;19.73;;
4084;SDS011;2057;50.858;6.572;2022-09-12T07:56:48;28.83;;;20.27;;
4084;SDS011;2057;50.858;6.572;2022-09-12T07:59:13;32.83;;;20.97;;
4084;SDS011;2057;50.858;6.572;2022-09-12T08:01:39;32.03;;;19.97;;
4084;SDS011;2057;50.858;6.572;2022-09-12T08:04:05;31.67;;;18.77;;
4084;SDS011;2057;50.858;6.572;2022-09-12T08:06:30;31.77;;;20.00;;
4084;SDS011;2057;50.858;6.572;2022-09-12T08:08:59;27.33;;;18.30;;
4084;SDS011;2057;50.858;6.572;2022-09-12T08:11:26;30.83;;;20.27;;
4084;SDS011;2057;50.858;6.572;2022-09-12T08:13:53;24.33;;;18.47;;
4084;SDS011;2057;50.858;6.572;2022-09-12T08:16:21;29.40;;;18.47;;
4084;SDS011;2057;50.858;6.572;2022-09-12T08:18:50;31.27;;;19.07;;
4084;SDS011;2057;50.858;6.572;2022-09-12T08:21:23;27.10;;;18.03;;
4084;SDS011;2057;50.858;6.572;2022-09-12T08:23:51;30.40;;;17.00;;
4084;SDS011;2057;50.858;6.572;2022-09-12T08:26:20;26.27;;;18.27;;
4084;SDS011;2057;50.858;6.572;2022-09-12T08:28:47;23.37;;;16.27;;
4084;SDS011;2057;50.858;6.572;2022-09-12T08:31:14;26.63;;;16.93;;
4084;SDS011;2057;50.858;6.572;2022-09-12T08:33:41;26.63;;;14.90;;
4084;SDS011;2057;50.858;6.572;2022-09-12T08:38:37;21.67;;;14.77;;
4084;SDS011;2057;50.858;6.572;2022-09-12T08:49:11;23.33;;;16.37;;
4084;SDS011;2057;50.858;6.572;2022-09-12T08:51:39;24.23;;;16.77;;
4084;SDS011;2057;50.858;6.572;2022-09-12T08:54:08;23.80;;;14.40;;
4084;SDS011;2057;50.858;6.572;2022-09-12T08:56:48;18.83;;;15.00;;
4084;SDS011;2057;50.858;6.572;2022-09-12T08:59:14;18.40;;;14.20;;
4084;SDS011;2057;50.858;6.572;2022-09-12T09:01:41;19.73;;;15.10;;
4084;SDS011;2057;50.858;6.572;2022-09-12T09:04:15;21.87;;;15.80;;
4084;SDS011;2057;50.858;6.572;2022-09-12T09:12:35;19.73;;;12.00;;
4084;SDS011;2057;50.858;6.572;2022-09-12T09:22:48;13.57;;;10.73;;
4084;SDS011;2057;50.858;6.572;2022-09-12T09:25:21;13.03;;;10.00;;
4084;SDS011;2057;50.858;6.572;2022-09-12T09:30:15;11.83;;;10.53;;
4084;SDS011;2057;50.858;6.572;2022-09-12T09:32:43;11.90;;;9.33;;
4084;SDS011;2057;50.858;6.572;2022-09-12T09:35:21;14.30;;;9.70;;
4084;SDS011;2057;50.858;6.572;2022-09-12T09:43:49;12.80;;;9.27;;
4084;SDS011;2057;50.858;6.572;2022-09-12T09:46:14;11.80;;;9.47;;
4084;SDS011;2057;50.858;6.572;2022-09-12T09:48:40;24.93;;;9.07;;
4084;SDS011;2057;50.858;6.572;2022-09-12T09:51:12;15.20;;;8.80;;
4084;SDS011;2057;50.858;6.572;2022-09-12T09:56:38;11.83;;;7.50;;
4084;SDS011;2057;50.858;6.572;2022-09-12T09:59:16;7.33;;;6.33;;
4084;SDS011;2057;50.858;6.572;2022-09-12T10:01:51;11.93;;;6.20;;
4084;SDS011;2057;50.858;6.572;2022-09-12T10:04:25;9.90;;;6.70;;
4084;SDS011;2057;50.858;6.572;2022-09-12T10:07:02;9.37;;;5.97;;
4084;SDS011;2057;50.858;6.572;2022-09-12T10:11:57;6.57;;;4.80;;
4084;SDS011;2057;50.858;6.572;2022-09-12T10:14:32;5.73;;;5.00;;
4084;SDS011;2057;50.858;6.572;2022-09-12T10:19:54;9.57;;;4.90;;
4084;SDS011;2057;50.858;6.572;2022-09-12T10:22:21;6.93;;;3.97;;
4084;SDS011;2057;50.858;6.572;2022-09-12T10:24:49;5.43;;;4.90;;
4084;SDS011;2057;50.858;6.572;2022-09-12T10:27:21;4.93;;;4.40;;
4084;SDS011;2057;50.858;6.572;2022-09-12T10:29:51;10.23;;;4.20;;
4084;SDS011;2057;50.858;6.572;2022-09-12T10:34:52;5.93;;;5.40;;
4084;SDS011;2057;50.858;6.572;2022-09-12T10:37:36;6.37;;;4.57;;
4084;SDS011;2057;50.858;6.572;2022-09-12T10:40:04;16.53;;;4.20;;
4084;SDS011;2057;50.858;6.572;2022-09-12T10:45:23;7.27;;;4.03;;
4084;SDS011;2057;50.858;6.572;2022-09-12T10:47:51;11.20;;;4.57;;
4084;SDS011;2057;50.858;6.572;2022-09-12T10:50:22;4.50;;;4.10;;
4084;SDS011;2057;50.858;6.572;2022-09-12T10:53:11;9.20;;;3.60;;
4084;SDS011;2057;50.858;6.572;2022-09-12T10:55:52;9.40;;;4.03;;
4084;SDS011;2057;50.858;6.572;2022-09-12T11:01:54;6.83;;;4.20;;
4084;SDS011;2057;50.858;6.572;2022-09-12T11:07:38;4.07;;;3.70;;
4084;SDS011;2057;50.858;6.572;2022-09-12T11:10:19;5.70;;;4.07;;
4084;SDS011;2057;50.858;6.572;2022-09-12T11:46:21;3.70;;;3.33;;
4084;SDS011;2057;50.858;6.572;2022-09-12T11:56:45;4.43;;;2.40;;
4084;SDS011;2057;50.858;6.572;2022-09-12T11:59:31;23.87;;;3.03;;
4084;SDS011;2057;50.858;6.572;2022-09-12T12:02:16;2.73;;;1.50;;
4084;SDS011;2057;50.858;6.572;2022-09-12T12:07:58;1.60;;;1.50;;
4084;SDS011;2057;50.858;6.572;2022-09-12T12:10:38;1.60;;;1.50;;
4084;SDS011;2057;50.858;6.572;2022-09-12T12:13:18;2.17;;;1.90;;
4084;SDS011;2057;50.858;6.572;2022-09-12T12:15:46;1.80;;;1.47;;
4084;SDS011;2057;50.858;6.572;2022-09-12T12:18:24;5.13;;;1.43;;
4084;SDS011;2057;50.858;6.572;2022-09-12T12:20:51;1.67;;;1.57;;
4084;SDS011;2057;50.858;6.572;2022-09-12T12:23:31;4.23;;;1.77;;
4084;SDS011;2057;50.858;6.572;2022-09-12T12:26:02;1.70;;;1.60;;
4084;SDS011;2057;50.858;6.572;2022-09-12T12:31:06;4.30;;;1.80;;
4084;SDS011;2057;50.858;6.572;2022-09-12T12:43:50;3.67;;;1.87;;
4084;SDS011;2057;50.858;6.572;2022-09-12T12:48:55;2.03;;;1.80;;
4084;SDS011;2057;50.858;6.572;2022-09-12T12:54:26;2.80;;;1.30;;
4084;SDS011;2057;50.858;6.572;2022-09-12T12:57:00;1.50;;;1.40;;
4084;SDS011;2057;50.858;6.572;2022-09-12T12:59:44;2.13;;;1.33;;
4084;SDS011;2057;50.858;6.572;2022-09-12T13:04:54;4.00;;;1.37;;
4084;SDS011;2057;50.858;6.572;2022-09-12T13:07:24;1.77;;;1.43;;
4084;SDS011;2057;50.858;6.572;2022-09-12T13:09:52;3.03;;;2.00;;
4084;SDS011;2057;50.858;6.572;2022-09-12T13:12:20;3.67;;;1.50;;
4084;SDS011;2057;50.858;6.572;2022-09-12T13:14:58;2.30;;;1.73;;
4084;SDS011;2057;50.858;6.572;2022-09-12T13:17:40;3.80;;;1.80;;
4084;SDS011;2057;50.858;6.572;2022-09-12T13:22:49;1.63;;;1.53;;
4084;SDS011;2057;50.858;6.572;2022-09-12T13:25:27;1.90;;;1.80;;
4084;SDS011;2057;50.858;6.572;2022-09-12T13:28:00;2.70;;;1.90;;
4084;SDS011;2057;50.858;6.572;2022-09-12T13:30:30;1.57;;;1.47;;
4084;SDS011;2057;50.858;6.572;2022-09-12T13:32:57;1.47;;;1.37;;
4084;SDS011;2057;50.858;6.572;2022-09-12T13:35:44;2.07;;;1.53;;
4084;SDS011;2057;50.858;6.572;2022-09-12T13:38:22;2.37;;;2.10;;
4084;SDS011;2057;50.858;6.572;2022-09-12T13:43:44;3.47;;;1.97;;
4084;SDS011;2057;50.858;6.572;2022-09-12T13:46:12;7.67;;;1.90;;
4084;SDS011;2057;50.858;6.572;2022-09-12T13:48:43;6.60;;;1.70;;
4084;SDS011;2057;50.858;6.572;2022-09-12T13:51:17;2.23;;;1.40;;
4084;SDS011;2057;50.858;6.572;2022-09-12T13:53:49;6.93;;;1.70;;
4084;SDS011;2057;50.858;6.572;2022-09-12T13:56:18;2.07;;;1.80;;
4084;SDS011;2057;50.858;6.572;2022-09-12T13:58:51;2.37;;;1.70;;
4084;SDS011;2057;50.858;6.572;2022-09-12T14:01:20;3.60;;;1.80;;
4084;SDS011;2057;50.858;6.572;2022-09-12T14:03:53;2.33;;;1.77;;
4084;SDS011;2057;50.858;6.572;2022-09-12T14:06:45;3.70;;;1.60;;
4084;SDS011;2057;50.858;6.572;2022-09-12T14:09:19;2.93;;;1.60;;
4084;SDS011;2057;50.858;6.572;2022-09-12T14:11:47;3.93;;;1.73;;
4084;SDS011;2057;50.858;6.572;2022-09-12T14:14:26;2.40;;;1.83;;
4084;SDS011;2057;50.858;6.572;2022-09-12T14:16:57;2.60;;;1.83;;
4084;SDS011;2057;50.858;6.572;2022-09-12T14:19:23;3.40;;;1.40;;
4084;SDS011;2057;50.858;6.572;2022-09-12T14:21:51;2.73;;;1.87;;
4084;SDS011;2057;50.858;6.572;2022-09-12T14:24:17;2.97;;;1.47;;
4084;SDS011;2057;50.858;6.572;2022-09-12T14:26:47;1.50;;;1.40;;
4084;SDS011;2057;50.858;6.572;2022-09-12T14:29:14;1.60;;;1.50;;
4084;SDS011;2057;50.858;6.572;2022-09-12T14:31:41;8.00;;;1.43;;
4084;SDS011;2057;50.858;6.572;2022-09-12T14:36:41;3.77;;;1.50;;
4084;SDS011;2057;50.858;6.572;2022-09-12T14:39:22;2.03;;;1.77;;
4084;SDS011;2057;50.858;6.572;2022-09-12T14:41:48;2.13;;;1.60;;
4084;SDS011;2057;50.858;6.572;2022-09-12T14:44:20;2.57;;;1.30;;
4084;SDS011;2057;50.858;6.572;2022-09-12T14:46:49;3.90;;;2.03;;
4084;SDS011;2057;50.858;6.572;2022-09-12T14:57:36;4.07;;;1.70;;
4084;SDS011;2057;50.858;6.572;2022-09-12T15:00:03;2.77;;;2.20;;
4084;SDS011;2057;50.858;6.572;2022-09-12T15:02:41;2.63;;;2.13;;
4084;SDS011;2057;50.858;6.572;2022-09-12T15:07:38;3.17;;;2.10;;
4084;SDS011;2057;50.858;6.572;2022-09-12T15:10:28;3.23;;;1.63;;
4084;SDS011;2057;50.858;6.572;2022-09-12T15:15:36;2.10;;;2.00;;
4084;SDS011;2057;50.858;6.572;2022-09-12T15:18:03;4.23;;;1.60;;
4084;SDS011;2057;50.858;6.572;2022-09-12T15:20:29;1.70;;;1.50;;
4084;SDS011;2057;50.858;6.572;2022-09-12T15:22:55;1.80;;;1.70;;
4084;SDS011;2057;50.858;6.572;2022-09-12T15:25:21;1.93;;;1.60;;
4084;SDS011;2057;50.858;6.572;2022-09-12T15:27:46;3.37;;;2.20;;
4084;SDS011;2057;50.858;6.572;2022-09-12T15:30:14;1.67;;;1.53;;
4084;SDS011;2057;50.858;6.572;2022-09-12T15:32:40;1.40;;;1.30;;
4084;SDS011;2057;50.858;6.572;2022-09-12T15:35:22;1.83;;;1.50;;
4084;SDS011;2057;50.858;6.572;2022-09-12T15:37:57;1.47;;;1.37;;
4084;SDS011;2057;50.858;6.572;2022-09-12T15:40:22;3.80;;;1.70;;
4084;SDS011;2057;50.858;6.572;2022-09-12T15:42:50;1.60;;;1.40;;
4084;SDS011;2057;50.858;6.572;2022-09-12T15:45:17;1.53;;;1.30;;
4084;SDS011;2057;50.858;6.572;2022-09-12T15:47:45;4.60;;;1.33;;
4084;SDS011;2057;50.858;6.572;2022-09-12T15:50:11;2.60;;;1.57;;
4084;SDS011;2057;50.858;6.572;2022-09-12T15:52:36;2.67;;;1.80;;
4084;SDS011;2057;50.858;6.572;2022-09-12T15:55:02;2.03;;;1.93;;
4084;SDS011;2057;50.858;6.572;2022-09-12T15:57:28;4.07;;;2.93;;
4084;SDS011;2057;50.858;6.572;2022-09-12T15:59:54;6.80;;;3.07;;
4084;SDS011;2057;50.858;6.572;2022-09-12T16:02:19;6.93;;;2.80;;
4084;SDS011;2057;50.858;6.572;2022-09-12T16:04:44;4.97;;;2.77;;
4084;SDS011;2057;50.858;6.572;2022-09-12T16:07:12;2.93;;;2.53;;
4084;SDS011;2057;50.858;6.572;2022-09-12T16:09:37;2.60;;;2.40;;
4084;SDS011;2057;50.858;6.572;2022-09-12T16:12:03;3.53;;;2.33;;
4084;SDS011;2057;50.858;6.572;2022-09-12T16:14:28;3.70;;;2.40;;
4084;SDS011;2057;50.858;6.572;2022-09-12T16:16:53;2.90;;;2.70;;
4084;SDS011;2057;50.858;6.572;2022-09-12T16:19:19;2.43;;;2.20;;
4084;SDS011;2057;50.858;6.572;2022-09-12T16:21:44;14.87;;;2.63;;
4084;SDS011;2057;50.858;6.572;2022-09-12T16:24:10;3.20;;;2.47;;
4084;SDS011;2057;50.858;6.572;2022-09-12T16:26:35;3.27;;;2.40;;
4084;SDS011;2057;50.858;6.572;2022-09-12T16:29:00;5.07;;;2.57;;
4084;SDS011;2057;50.858;6.572;2022-09-12T16:31:26;8.60;;;3.20;;
4084;SDS011;2057;50.858;6.572;2022-09-12T16:33:52;4.37;;;2.53;;
4084;SDS011;2057;50.858;6.572;2022-09-12T16:36:19;3.43;;;3.13;;
4084;SDS011;2057;50.858;6.572;2022-09-12T16:38:46;7.10;;;2.27;;
4084;SDS011;2057;50.858;6.572;2022-09-12T16:41:13;3.00;;;2.17;;
4084;SDS011;2057;50.858;6.572;2022-09-12T16:43:39;4.20;;;2.20;;
4084;SDS011;2057;50.858;6.572;2022-09-12T16:46:15;6.17;;;2.10;;
4084;SDS011;2057;50.858;6.572;2022-09-12T16:48:46;11.30;;;2.80;;
4084;SDS011;2057;50.858;6.572;2022-09-12T16:51:17;3.67;;;2.07;;
4084;SDS011;2057;50.858;6.572;2022-09-12T16:53:44;12.50;;;2.57;;
4084;SDS011;2057;50.858;6.572;2022-09-12T16:56:10;5.60;;;1.67;;
4084;SDS011;2057;50.858;6.572;2022-09-12T16:58:35;3.90;;;2.10;;
4084;SDS011;2057;50.858;6.572;2022-09-12T17:01:06;1.77;;;1.63;;
4084;SDS011;2057;50.858;6.572;2022-09-12T17:03:54;10.33;;;1.90;;
4084;SDS011;2057;50.858;6.572;2022-09-12T17:06:20;5.17;;;1.97;;
4084;SDS011;2057;50.858;6.572;2022-09-12T17:08:47;2.10;;;1.90;;
4084;SDS011;2057;50.858;6.572;2022-09-12T17:11:15;7.53;;;1.87;;
4084;SDS011;2057;50.858;6.572;2022-09-12T17:13:49;7.53;;;2.73;;
4084;SDS011;2057;50.858;6.572;2022-09-12T17:16:17;5.83;;;2.17;;
4084;SDS011;2057;50.858;6.572;2022-09-12T17:18:43;4.43;;;2.40;;
4084;SDS011;2057;50.858;6.572;2022-09-12T17:21:09;7.60;;;2.43;;
4084;SDS011;2057;50.858;6.572;2022-09-12T17:23:35;4.50;;;2.13;;
4084;SDS011;2057;50.858;6.572;2022-09-12T17:26:01;3.60;;;2.83;;
4084;SDS011;2057;50.858;6.572;2022-09-12T17:28:27;5.83;;;2.17;;
4084;SDS011;2057;50.858;6.572;2022-09-12T17:30:53;2.20;;;2.00;;
4084;SDS011;2057;50.858;6.572;2022-09-12T17:33:23;3.03;;;2.73;;
4084;SDS011;2057;50.858;6.572;2022-09-12T17:35:50;5.50;;;2.40;;
4084;SDS011;2057;50.858;6.572;2022-09-12T17:38:15;11.13;;;3.00;;
4084;SDS011;2057;50.858;6.572;2022-09-12T17:40:41;6.67;;;2.60;;
4084;SDS011;2057;50.858;6.572;2022-09-12T17:43:09;6.13;;;2.30;;
4084;SDS011;2057;50.858;6.572;2022-09-12T17:45:35;3.63;;;2.93;;
4084;SDS011;2057;50.858;6.572;2022-09-12T17:48:01;3.50;;;2.50;;
4084;SDS011;2057;50.858;6.572;2022-09-12T17:50:26;4.53;;;2.50;;
4084;SDS011;2057;50.858;6.572;2022-09-12T17:52:52;23.97;;;3.93;;
4084;SDS011;2057;50.858;6.572;2022-09-12T17:55:17;4.03;;;3.07;;
4084;SDS011;2057;50.858;6.572;2022-09-12T17:57:43;6.80;;;2.40;;
4084;SDS011;2057;50.858;6.572;2022-09-12T18:00:09;6.27;;;2.77;;
4084;SDS011;2057;50.858;6.572;2022-09-12T18:02:35;8.00;;;3.20;;
4084;SDS011;2057;50.858;6.572;2022-09-12T18:05:01;3.97;;;2.87;;
4084;SDS011;2057;50.858;6.572;2022-09-12T18:07:29;2.17;;;2.00;;
4084;SDS011;2057;50.858;6.572;2022-09-12T18:09:55;9.53;;;3.23;;
4084;SDS011;2057;50.858;6.572;2022-09-12T18:12:21;13.23;;;2.93;;
4084;SDS011;2057;50.858;6.572;2022-09-12T18:14:47;5.73;;;3.53;;
4084;SDS011;2057;50.858;6.572;2022-09-12T18:17:12;13.30;;;3.20;;
4084;SDS011;2057;50.858;6.572;2022-09-12T18:19:37;3.37;;;2.80;;